Route Details

Aircraft Information
Group: North America Fleet
Types: B738, B752, B762, B763
Route Data
Distance: 1752nm
Duration: 0h 00m
Origin METAR: KILN 260154Z AUTO 29005KT 10SM FEW060 24/17 A2988 RMK AO2 SLP107 T02390172
Dest. METAR: KSMF 260153Z 18009KT 10SM CLR 22/10 A2994 RMK AO2 SLP138 T02220100
Freight Data
(for May 26, 2024)
Load Factor:
77%
Manifested Cargo: 53,135lbs
Financial History
Total Freight: 0lbs
Average Load: 0lbs/flt
Fuel Used: 0lbs
Avg. Fuel Used: 0lbs/flt
Fuel Expense: $0
Avg. Fuel Expense: $0
Avg. Fuel Cost: $0/lbs
Total Gross Income: $0
Pilot Pay: $0
Total Expenses: $0
Total Revenue: $0
Average Revenue: $0

Capitol Logistics 314




KILN
Wilmington Air Park
Wilmington, Ohio
KSMF
Sacramento International Airport
Sacramento, California

Activity Log

Date Flight Route Aircraft Duration
No Flights Yet